sensor_id;sensor_type;location;lat;lon;timestamp;temperature;humidity
3504;DHT22;1766;53.490;10.174;2022-10-13T00:01:26;16.00;45.00
3504;DHT22;1766;53.490;10.174;2022-10-13T00:03:29;15.90;45.10
3504;DHT22;1766;53.490;10.174;2022-10-13T00:05:31;15.90;44.80
3504;DHT22;1766;53.490;10.174;2022-10-13T00:07:33;15.80;44.80
3504;DHT22;1766;53.490;10.174;2022-10-13T00:09:35;16.00;45.00
3504;DHT22;1766;53.490;10.174;2022-10-13T00:11:37;16.10;45.60
3504;DHT22;1766;53.490;10.174;2022-10-13T00:13:39;16.00;44.90
3504;DHT22;1766;53.490;10.174;2022-10-13T00:15:43;16.00;45.00
3504;DHT22;1766;53.490;10.174;2022-10-13T00:17:46;16.00;45.00
3504;DHT22;1766;53.490;10.174;2022-10-13T00:19:49;16.00;44.90
3504;DHT22;1766;53.490;10.174;2022-10-13T00:21:51;16.00;44.80
3504;DHT22;1766;53.490;10.174;2022-10-13T00:23:53;16.00;44.80
3504;DHT22;1766;53.490;10.174;2022-10-13T00:25:55;15.90;44.80
3504;DHT22;1766;53.490;10.174;2022-10-13T00:27:57;15.90;44.60
3504;DHT22;1766;53.490;10.174;2022-10-13T00:29:59;15.90;44.70
3504;DHT22;1766;53.490;10.174;2022-10-13T00:32:01;15.90;44.60
3504;DHT22;1766;53.490;10.174;2022-10-13T00:34:02;15.80;44.60
3504;DHT22;1766;53.490;10.174;2022-10-13T00:36:06;15.80;44.60
3504;DHT22;1766;53.490;10.174;2022-10-13T00:38:08;15.80;44.70
3504;DHT22;1766;53.490;10.174;2022-10-13T00:40:11;15.80;44.60
3504;DHT22;1766;53.490;10.174;2022-10-13T00:42:13;15.80;44.60
3504;DHT22;1766;53.490;10.174;2022-10-13T00:47:01;15.70;44.70
3504;DHT22;1766;53.490;10.174;2022-10-13T00:49:05;15.80;44.50
3504;DHT22;1766;53.490;10.174;2022-10-13T00:51:12;15.80;44.60
3504;DHT22;1766;53.490;10.174;2022-10-13T00:53:17;15.80;44.70
3504;DHT22;1766;53.490;10.174;2022-10-13T00:55:21;15.80;44.80
3504;DHT22;1766;53.490;10.174;2022-10-13T00:57:25;15.80;44.80
3504;DHT22;1766;53.490;10.174;2022-10-13T00:59:27;15.80;44.60
3504;DHT22;1766;53.490;10.174;2022-10-13T01:01:30;15.70;44.70
3504;DHT22;1766;53.490;10.174;2022-10-13T01:03:32;15.60;44.70
3504;DHT22;1766;53.490;10.174;2022-10-13T01:05:37;15.70;44.70
3504;DHT22;1766;53.490;10.174;2022-10-13T01:07:41;15.70;44.80
3504;DHT22;1766;53.490;10.174;2022-10-13T01:09:44;15.60;44.50
3504;DHT22;1766;53.490;10.174;2022-10-13T01:11:58;15.70;44.60
3504;DHT22;1766;53.490;10.174;2022-10-13T01:14:10;15.60;44.80
3504;DHT22;1766;53.490;10.174;2022-10-13T01:16:20;15.50;44.60
3504;DHT22;1766;53.490;10.174;2022-10-13T01:18:30;15.50;44.60
3504;DHT22;1766;53.490;10.174;2022-10-13T01:20:52;15.50;44.60
3504;DHT22;1766;53.490;10.174;2022-10-13T01:23:28;15.50;44.60
3504;DHT22;1766;53.490;10.174;2022-10-13T01:25:53;15.50;44.60
3504;DHT22;1766;53.490;10.174;2022-10-13T01:28:22;15.40;44.40
3504;DHT22;1766;53.490;10.174;2022-10-13T01:30:34;15.40;44.50
3504;DHT22;1766;53.490;10.174;2022-10-13T01:32:50;15.50;44.50
3504;DHT22;1766;53.490;10.174;2022-10-13T01:35:04;15.40;44.50
3504;DHT22;1766;53.490;10.174;2022-10-13T01:37:12;15.30;44.50
3504;DHT22;1766;53.490;10.174;2022-10-13T01:39:23;15.30;44.60
3504;DHT22;1766;53.490;10.174;2022-10-13T01:41:33;15.30;44.60
3504;DHT22;1766;53.490;10.174;2022-10-13T01:43:41;15.20;44.50
3504;DHT22;1766;53.490;10.174;2022-10-13T01:45:49;15.40;44.70
3504;DHT22;1766;53.490;10.174;2022-10-13T01:47:55;15.10;44.50
3504;DHT22;1766;53.490;10.174;2022-10-13T01:49:58;15.20;44.50
3504;DHT22;1766;53.490;10.174;2022-10-13T01:52:03;15.20;44.60
3504;DHT22;1766;53.490;10.174;2022-10-13T01:54:07;15.20;44.70
3504;DHT22;1766;53.490;10.174;2022-10-13T01:56:09;15.20;44.50
3504;DHT22;1766;53.490;10.174;2022-10-13T01:58:11;15.10;44.50
3504;DHT22;1766;53.490;10.174;2022-10-13T02:02:19;15.00;44.50
3504;DHT22;1766;53.490;10.174;2022-10-13T02:04:32;15.00;44.40
3504;DHT22;1766;53.490;10.174;2022-10-13T02:06:44;14.90;44.40
3504;DHT22;1766;53.490;10.174;2022-10-13T02:08:57;14.90;44.40
3504;DHT22;1766;53.490;10.174;2022-10-13T02:11:09;14.90;44.40
3504;DHT22;1766;53.490;10.174;2022-10-13T02:13:15;14.80;44.40
3504;DHT22;1766;53.490;10.174;2022-10-13T02:15:23;14.80;44.40
3504;DHT22;1766;53.490;10.174;2022-10-13T02:17:30;14.70;44.40
3504;DHT22;1766;53.490;10.174;2022-10-13T02:19:34;14.70;44.40
3504;DHT22;1766;53.490;10.174;2022-10-13T02:21:38;14.60;44.40
3504;DHT22;1766;53.490;10.174;2022-10-13T02:23:41;14.70;44.40
3504;DHT22;1766;53.490;10.174;2022-10-13T02:25:43;14.60;44.50
3504;DHT22;1766;53.490;10.174;2022-10-13T02:27:46;14.60;44.70
3504;DHT22;1766;53.490;10.174;2022-10-13T02:29:50;14.60;44.70
3504;DHT22;1766;53.490;10.174;2022-10-13T02:31:52;14.60;44.90
3504;DHT22;1766;53.490;10.174;2022-10-13T02:33:55;14.50;44.80
3504;DHT22;1766;53.490;10.174;2022-10-13T02:35:57;14.50;44.70
3504;DHT22;1766;53.490;10.174;2022-10-13T02:37:59;14.50;44.80
3504;DHT22;1766;53.490;10.174;2022-10-13T02:40:01;14.50;44.90
3504;DHT22;1766;53.490;10.174;2022-10-13T02:42:03;14.40;45.00
3504;DHT22;1766;53.490;10.174;2022-10-13T02:44:06;14.50;45.20
3504;DHT22;1766;53.490;10.174;2022-10-13T02:46:08;14.60;45.40
3504;DHT22;1766;53.490;10.174;2022-10-13T02:48:09;14.40;45.10
3504;DHT22;1766;53.490;10.174;2022-10-13T02:50:13;14.30;45.00
3504;DHT22;1766;53.490;10.174;2022-10-13T02:52:15;14.40;45.10
3504;DHT22;1766;53.490;10.174;2022-10-13T02:54:17;14.30;45.10
3504;DHT22;1766;53.490;10.174;2022-10-13T02:56:19;14.30;45.20
3504;DHT22;1766;53.490;10.174;2022-10-13T02:58:21;14.30;45.10
3504;DHT22;1766;53.490;10.174;2022-10-13T03:00:22;14.30;45.40
3504;DHT22;1766;53.490;10.174;2022-10-13T03:02:25;14.30;45.40
3504;DHT22;1766;53.490;10.174;2022-10-13T03:04:27;14.30;45.50
3504;DHT22;1766;53.490;10.174;2022-10-13T03:06:30;14.20;45.40
3504;DHT22;1766;53.490;10.174;2022-10-13T03:08:33;14.20;45.50
3504;DHT22;1766;53.490;10.174;2022-10-13T03:10:35;14.20;45.50
3504;DHT22;1766;53.490;10.174;2022-10-13T03:12:37;14.20;45.50
3504;DHT22;1766;53.490;10.174;2022-10-13T03:14:39;14.30;45.50
3504;DHT22;1766;53.490;10.174;2022-10-13T03:16:41;14.20;45.50
3504;DHT22;1766;53.490;10.174;2022-10-13T03:18:43;14.20;45.50
3504;DHT22;1766;53.490;10.174;2022-10-13T03:20:54;14.20;45.60
3504;DHT22;1766;53.490;10.174;2022-10-13T03:22:59;14.20;45.70
3504;DHT22;1766;53.490;10.174;2022-10-13T03:25:00;14.20;45.50
3504;DHT22;1766;53.490;10.174;2022-10-13T03:27:03;14.20;45.60
3504;DHT22;1766;53.490;10.174;2022-10-13T03:29:04;14.20;45.60
3504;DHT22;1766;53.490;10.174;2022-10-13T03:31:09;14.20;45.70
3504;DHT22;1766;53.490;10.174;2022-10-13T03:33:11;14.10;45.80
3504;DHT22;1766;53.490;10.174;2022-10-13T03:35:13;14.20;45.80
3504;DHT22;1766;53.490;10.174;2022-10-13T03:37:15;14.10;45.80
3504;DHT22;1766;53.490;10.174;2022-10-13T03:39:18;14.10;45.70
3504;DHT22;1766;53.490;10.174;2022-10-13T03:41:21;14.10;45.80
3504;DHT22;1766;53.490;10.174;2022-10-13T03:43:23;14.10;45.80
3504;DHT22;1766;53.490;10.174;2022-10-13T03:45:25;14.10;45.80
3504;DHT22;1766;53.490;10.174;2022-10-13T03:47:27;14.10;45.70
3504;DHT22;1766;53.490;10.174;2022-10-13T03:49:29;14.00;45.80
3504;DHT22;1766;53.490;10.174;2022-10-13T03:51:30;14.00;45.70
3504;DHT22;1766;53.490;10.174;2022-10-13T03:53:33;14.00;45.80
3504;DHT22;1766;53.490;10.174;2022-10-13T03:55:36;14.00;45.90
3504;DHT22;1766;53.490;10.174;2022-10-13T03:57:38;14.00;45.90
3504;DHT22;1766;53.490;10.174;2022-10-13T03:59:40;14.00;46.00
3504;DHT22;1766;53.490;10.174;2022-10-13T04:01:42;14.00;46.10
3504;DHT22;1766;53.490;10.174;2022-10-13T04:03:44;14.00;46.10
3504;DHT22;1766;53.490;10.174;2022-10-13T04:05:46;14.00;46.20
3504;DHT22;1766;53.490;10.174;2022-10-13T04:07:48;14.00;46.40
3504;DHT22;1766;53.490;10.174;2022-10-13T04:09:50;14.00;46.40
3504;DHT22;1766;53.490;10.174;2022-10-13T04:11:53;14.00;46.40
3504;DHT22;1766;53.490;10.174;2022-10-13T04:13:56;14.00;46.60
3504;DHT22;1766;53.490;10.174;2022-10-13T04:16:01;14.00;46.60
3504;DHT22;1766;53.490;10.174;2022-10-13T04:18:04;14.10;46.80
3504;DHT22;1766;53.490;10.174;2022-10-13T04:20:13;14.10;46.80
3504;DHT22;1766;53.490;10.174;2022-10-13T04:22:14;14.10;46.60
3504;DHT22;1766;53.490;10.174;2022-10-13T04:24:17;14.10;46.60
3504;DHT22;1766;53.490;10.174;2022-10-13T04:26:20;14.20;46.80
3504;DHT22;1766;53.490;10.174;2022-10-13T04:28:24;14.30;47.00
3504;DHT22;1766;53.490;10.174;2022-10-13T04:30:26;14.20;46.80
3504;DHT22;1766;53.490;10.174;2022-10-13T04:32:28;14.30;46.90
3504;DHT22;1766;53.490;10.174;2022-10-13T04:34:30;14.20;46.80
3504;DHT22;1766;53.490;10.174;2022-10-13T04:36:32;14.30;46.90
3504;DHT22;1766;53.490;10.174;2022-10-13T04:38:34;14.20;46.80
3504;DHT22;1766;53.490;10.174;2022-10-13T04:40:35;14.20;46.90
3504;DHT22;1766;53.490;10.174;2022-10-13T04:42:37;14.20;46.80
3504;DHT22;1766;53.490;10.174;2022-10-13T04:44:40;14.20;46.90
3504;DHT22;1766;53.490;10.174;2022-10-13T04:46:42;14.20;46.90
3504;DHT22;1766;53.490;10.174;2022-10-13T04:48:44;14.30;47.10
3504;DHT22;1766;53.490;10.174;2022-10-13T04:50:46;14.20;47.00
3504;DHT22;1766;53.490;10.174;2022-10-13T04:52:48;14.20;46.90
3504;DHT22;1766;53.490;10.174;2022-10-13T04:54:50;14.20;47.00
3504;DHT22;1766;53.490;10.174;2022-10-13T04:56:52;14.20;46.90
3504;DHT22;1766;53.490;10.174;2022-10-13T04:58:54;14.10;46.90
3504;DHT22;1766;53.490;10.174;2022-10-13T05:00:57;14.10;46.80
3504;DHT22;1766;53.490;10.174;2022-10-13T05:02:59;14.10;46.90
3504;DHT22;1766;53.490;10.174;2022-10-13T05:05:01;14.20;47.00
3504;DHT22;1766;53.490;10.174;2022-10-13T05:07:03;14.10;47.10
3504;DHT22;1766;53.490;10.174;2022-10-13T05:09:05;14.10;46.90
3504;DHT22;1766;53.490;10.174;2022-10-13T05:11:07;14.10;47.00
3504;DHT22;1766;53.490;10.174;2022-10-13T05:13:09;14.10;47.20
3504;DHT22;1766;53.490;10.174;2022-10-13T05:15:11;14.10;47.10
3504;DHT22;1766;53.490;10.174;2022-10-13T05:17:14;14.10;47.20
3504;DHT22;1766;53.490;10.174;2022-10-13T05:19:16;14.10;47.30
3504;DHT22;1766;53.490;10.174;2022-10-13T05:21:20;14.20;47.40
3504;DHT22;1766;53.490;10.174;2022-10-13T05:23:23;14.20;47.70
3504;DHT22;1766;53.490;10.174;2022-10-13T05:25:25;14.10;47.50
3504;DHT22;1766;53.490;10.174;2022-10-13T05:27:26;14.10;47.50
3504;DHT22;1766;53.490;10.174;2022-10-13T05:29:28;14.20;47.60
3504;DHT22;1766;53.490;10.174;2022-10-13T05:31:31;14.20;47.70
3504;DHT22;1766;53.490;10.174;2022-10-13T05:33:36;14.20;47.70
3504;DHT22;1766;53.490;10.174;2022-10-13T05:35:37;14.30;47.90
3504;DHT22;1766;53.490;10.174;2022-10-13T05:37:39;14.30;47.80
3504;DHT22;1766;53.490;10.174;2022-10-13T05:39:41;14.30;47.90
3504;DHT22;1766;53.490;10.174;2022-10-13T05:41:43;14.30;47.90
3504;DHT22;1766;53.490;10.174;2022-10-13T05:43:44;14.30;48.10
3504;DHT22;1766;53.490;10.174;2022-10-13T05:45:46;14.40;48.20
3504;DHT22;1766;53.490;10.174;2022-10-13T05:47:48;14.40;48.30
3504;DHT22;1766;53.490;10.174;2022-10-13T05:49:51;14.50;48.30
3504;DHT22;1766;53.490;10.174;2022-10-13T05:51:55;14.40;48.30
3504;DHT22;1766;53.490;10.174;2022-10-13T05:54:02;14.50;48.50
3504;DHT22;1766;53.490;10.174;2022-10-13T05:56:09;14.50;48.60
3504;DHT22;1766;53.490;10.174;2022-10-13T05:58:13;14.50;48.70
3504;DHT22;1766;53.490;10.174;2022-10-13T06:00:16;14.60;48.70
3504;DHT22;1766;53.490;10.174;2022-10-13T06:02:22;14.60;48.70
3504;DHT22;1766;53.490;10.174;2022-10-13T06:04:30;14.70;48.90
3504;DHT22;1766;53.490;10.174;2022-10-13T06:06:36;14.80;49.00
3504;DHT22;1766;53.490;10.174;2022-10-13T06:08:38;14.70;48.80
3504;DHT22;1766;53.490;10.174;2022-10-13T06:10:40;14.70;48.80
3504;DHT22;1766;53.490;10.174;2022-10-13T06:12:43;14.70;48.90
3504;DHT22;1766;53.490;10.174;2022-10-13T06:14:45;14.80;48.80
3504;DHT22;1766;53.490;10.174;2022-10-13T06:16:47;14.80;48.90
3504;DHT22;1766;53.490;10.174;2022-10-13T06:18:48;14.80;48.90
3504;DHT22;1766;53.490;10.174;2022-10-13T06:20:50;14.80;48.90
3504;DHT22;1766;53.490;10.174;2022-10-13T06:22:54;14.90;49.00
3504;DHT22;1766;53.490;10.174;2022-10-13T06:24:56;14.80;49.00
3504;DHT22;1766;53.490;10.174;2022-10-13T06:26:58;14.90;49.10
3504;DHT22;1766;53.490;10.174;2022-10-13T06:29:00;14.90;49.10
3504;DHT22;1766;53.490;10.174;2022-10-13T06:31:03;14.90;49.00
3504;DHT22;1766;53.490;10.174;2022-10-13T06:33:05;15.00;49.30
3504;DHT22;1766;53.490;10.174;2022-10-13T06:35:08;15.00;49.20
3504;DHT22;1766;53.490;10.174;2022-10-13T06:37:10;15.00;49.30
3504;DHT22;1766;53.490;10.174;2022-10-13T06:39:13;15.00;49.30
3504;DHT22;1766;53.490;10.174;2022-10-13T06:41:15;15.10;49.50
3504;DHT22;1766;53.490;10.174;2022-10-13T06:43:17;15.10;49.50
3504;DHT22;1766;53.490;10.174;2022-10-13T06:45:18;15.20;49.60
3504;DHT22;1766;53.490;10.174;2022-10-13T06:47:20;15.20;49.60
3504;DHT22;1766;53.490;10.174;2022-10-13T06:49:22;15.30;49.60
3504;DHT22;1766;53.490;10.174;2022-10-13T06:51:24;15.30;49.80
3504;DHT22;1766;53.490;10.174;2022-10-13T06:53:26;15.30;49.70
3504;DHT22;1766;53.490;10.174;2022-10-13T06:55:29;15.40;49.80
3504;DHT22;1766;53.490;10.174;2022-10-13T06:57:32;15.40;49.40
3504;DHT22;1766;53.490;10.174;2022-10-13T06:59:37;15.50;50.20
3504;DHT22;1766;53.490;10.174;2022-10-13T07:01:39;15.50;49.40
3504;DHT22;1766;53.490;10.174;2022-10-13T07:03:42;15.60;49.70
3504;DHT22;1766;53.490;10.174;2022-10-13T07:05:44;15.60;49.50
3504;DHT22;1766;53.490;10.174;2022-10-13T07:07:45;15.70;49.90
3504;DHT22;1766;53.490;10.174;2022-10-13T07:09:47;15.70;49.90
3504;DHT22;1766;53.490;10.174;2022-10-13T07:11:51;15.80;50.00
3504;DHT22;1766;53.490;10.174;2022-10-13T07:13:53;15.80;49.90
3504;DHT22;1766;53.490;10.174;2022-10-13T07:15:55;15.90;49.90
3504;DHT22;1766;53.490;10.174;2022-10-13T07:17:56;15.90;49.90
3504;DHT22;1766;53.490;10.174;2022-10-13T07:19:58;15.90;49.90
3504;DHT22;1766;53.490;10.174;2022-10-13T07:22:02;16.50;50.20
3504;DHT22;1766;53.490;10.174;2022-10-13T07:24:04;16.00;50.10
3504;DHT22;1766;53.490;10.174;2022-10-13T07:26:07;16.10;50.30
3504;DHT22;1766;53.490;10.174;2022-10-13T07:28:11;16.10;50.20
3504;DHT22;1766;53.490;10.174;2022-10-13T07:30:14;16.30;50.20
3504;DHT22;1766;53.490;10.174;2022-10-13T07:32:16;16.30;50.20
3504;DHT22;1766;53.490;10.174;2022-10-13T07:34:17;16.30;50.20
3504;DHT22;1766;53.490;10.174;2022-10-13T07:36:19;16.40;50.30
3504;DHT22;1766;53.490;10.174;2022-10-13T07:38:21;16.40;50.10
3504;DHT22;1766;53.490;10.174;2022-10-13T07:40:23;16.50;50.20
3504;DHT22;1766;53.490;10.174;2022-10-13T07:42:27;16.50;50.30
3504;DHT22;1766;53.490;10.174;2022-10-13T07:44:30;16.60;50.30
3504;DHT22;1766;53.490;10.174;2022-10-13T07:46:32;16.60;50.30
3504;DHT22;1766;53.490;10.174;2022-10-13T07:48:34;16.70;50.30
3504;DHT22;1766;53.490;10.174;2022-10-13T07:50:36;16.70;50.30
3504;DHT22;1766;53.490;10.174;2022-10-13T07:52:38;16.70;50.20
3504;DHT22;1766;53.490;10.174;2022-10-13T07:54:40;16.80;50.30
3504;DHT22;1766;53.490;10.174;2022-10-13T07:56:42;16.90;50.10
3504;DHT22;1766;53.490;10.174;2022-10-13T07:58:45;16.90;50.20
3504;DHT22;1766;53.490;10.174;2022-10-13T08:00:55;17.00;50.30
3504;DHT22;1766;53.490;10.174;2022-10-13T08:02:57;17.00;50.10
3504;DHT22;1766;53.490;10.174;2022-10-13T08:04:59;17.10;50.10
3504;DHT22;1766;53.490;10.174;2022-10-13T08:07:01;17.10;50.00
3504;DHT22;1766;53.490;10.174;2022-10-13T08:09:05;17.20;50.20
3504;DHT22;1766;53.490;10.174;2022-10-13T08:11:10;17.20;50.00
3504;DHT22;1766;53.490;10.174;2022-10-13T08:13:13;17.30;50.10
3504;DHT22;1766;53.490;10.174;2022-10-13T08:15:14;17.30;49.80
3504;DHT22;1766;53.490;10.174;2022-10-13T08:17:18;17.40;49.90
3504;DHT22;1766;53.490;10.174;2022-10-13T08:19:20;17.50;49.90
3504;DHT22;1766;53.490;10.174;2022-10-13T08:21:22;17.50;49.90
3504;DHT22;1766;53.490;10.174;2022-10-13T08:23:24;17.60;49.90
3504;DHT22;1766;53.490;10.174;2022-10-13T08:25:26;17.50;49.70
3504;DHT22;1766;53.490;10.174;2022-10-13T08:27:28;17.70;49.70
3504;DHT22;1766;53.490;10.174;2022-10-13T08:29:30;17.70;49.80
3504;DHT22;1766;53.490;10.174;2022-10-13T08:31:32;17.80;49.70
3504;DHT22;1766;53.490;10.174;2022-10-13T08:33:35;17.90;49.70
3504;DHT22;1766;53.490;10.174;2022-10-13T08:35:37;18.00;49.50
3504;DHT22;1766;53.490;10.174;2022-10-13T08:37:39;18.00;49.70
3504;DHT22;1766;53.490;10.174;2022-10-13T08:39:41;18.10;49.60
3504;DHT22;1766;53.490;10.174;2022-10-13T08:41:43;18.10;49.60
3504;DHT22;1766;53.490;10.174;2022-10-13T08:43:48;18.20;49.70
3504;DHT22;1766;53.490;10.174;2022-10-13T08:45:57;18.20;49.60
3504;DHT22;1766;53.490;10.174;2022-10-13T08:48:02;18.30;49.70
3504;DHT22;1766;53.490;10.174;2022-10-13T08:50:12;18.40;49.60
3504;DHT22;1766;53.490;10.174;2022-10-13T08:52:17;18.40;49.50
3504;DHT22;1766;53.490;10.174;2022-10-13T08:54:23;18.60;49.70
3504;DHT22;1766;53.490;10.174;2022-10-13T08:56:27;19.90;50.60
3504;DHT22;1766;53.490;10.174;2022-10-13T08:58:32;18.70;49.60
3504;DHT22;1766;53.490;10.174;2022-10-13T09:00:36;18.80;49.50
3504;DHT22;1766;53.490;10.174;2022-10-13T09:02:38;18.80;49.40
3504;DHT22;1766;53.490;10.174;2022-10-13T09:04:44;19.00;49.40
3504;DHT22;1766;53.490;10.174;2022-10-13T09:06:52;18.90;49.30
3504;DHT22;1766;53.490;10.174;2022-10-13T09:08:58;19.00;49.30
3504;DHT22;1766;53.490;10.174;2022-10-13T09:11:02;19.10;49.30
3504;DHT22;1766;53.490;10.174;2022-10-13T09:13:04;19.10;49.10
3504;DHT22;1766;53.490;10.174;2022-10-13T09:15:08;19.20;49.20
3504;DHT22;1766;53.490;10.174;2022-10-13T09:17:17;19.30;49.30
3504;DHT22;1766;53.490;10.174;2022-10-13T09:19:24;19.40;49.10
3504;DHT22;1766;53.490;10.174;2022-10-13T09:21:27;19.60;49.10
3504;DHT22;1766;53.490;10.174;2022-10-13T09:23:30;19.60;48.80
3504;DHT22;1766;53.490;10.174;2022-10-13T09:25:38;19.70;48.90
3504;DHT22;1766;53.490;10.174;2022-10-13T09:27:44;19.80;48.90
3504;DHT22;1766;53.490;10.174;2022-10-13T09:29:47;20.00;49.00
3504;DHT22;1766;53.490;10.174;2022-10-13T09:31:49;20.10;48.70
3504;DHT22;1766;53.490;10.174;2022-10-13T09:34:00;20.30;48.70
3504;DHT22;1766;53.490;10.174;2022-10-13T09:36:07;20.20;48.60
3504;DHT22;1766;53.490;10.174;2022-10-13T09:38:13;20.30;48.40
3504;DHT22;1766;53.490;10.174;2022-10-13T09:40:20;20.40;48.10
3504;DHT22;1766;53.490;10.174;2022-10-13T09:42:25;20.50;48.20
3504;DHT22;1766;53.490;10.174;2022-10-13T09:44:29;20.50;48.00
3504;DHT22;1766;53.490;10.174;2022-10-13T09:46:35;20.50;47.90
3504;DHT22;1766;53.490;10.174;2022-10-13T09:48:39;20.60;47.80
3504;DHT22;1766;53.490;10.174;2022-10-13T09:50:47;20.70;47.80
3504;DHT22;1766;53.490;10.174;2022-10-13T09:52:50;20.70;47.60
3504;DHT22;1766;53.490;10.174;2022-10-13T09:54:56;20.70;47.50
3504;DHT22;1766;53.490;10.174;2022-10-13T09:57:02;20.80;47.60
3504;DHT22;1766;53.490;10.174;2022-10-13T09:59:13;20.90;47.30
3504;DHT22;1766;53.490;10.174;2022-10-13T10:01:21;20.90;47.20
3504;DHT22;1766;53.490;10.174;2022-10-13T10:03:27;21.00;47.40
3504;DHT22;1766;53.490;10.174;2022-10-13T10:05:40;21.10;47.40
3504;DHT22;1766;53.490;10.174;2022-10-13T10:07:43;21.30;47.30
3504;DHT22;1766;53.490;10.174;2022-10-13T10:09:48;21.50;47.00
3504;DHT22;1766;53.490;10.174;2022-10-13T10:11:52;21.60;46.90
3504;DHT22;1766;53.490;10.174;2022-10-13T10:13:57;21.60;46.50
3504;DHT22;1766;53.490;10.174;2022-10-13T10:16:06;21.60;46.20
3504;DHT22;1766;53.490;10.174;2022-10-13T10:18:15;22.40;46.50
3504;DHT22;1766;53.490;10.174;2022-10-13T10:20:32;21.70;45.90
3504;DHT22;1766;53.490;10.174;2022-10-13T10:22:46;21.50;45.50
3504;DHT22;1766;53.490;10.174;2022-10-13T10:24:54;21.50;45.20
3504;DHT22;1766;53.490;10.174;2022-10-13T10:27:05;21.50;45.10
3504;DHT22;1766;53.490;10.174;2022-10-13T10:29:16;21.40;45.00
3504;DHT22;1766;53.490;10.174;2022-10-13T10:31:31;21.40;45.00
3504;DHT22;1766;53.490;10.174;2022-10-13T10:33:46;21.50;45.10
3504;DHT22;1766;53.490;10.174;2022-10-13T10:35:57;21.60;45.20
3504;DHT22;1766;53.490;10.174;2022-10-13T10:38:17;21.70;45.10
3504;DHT22;1766;53.490;10.174;2022-10-13T10:40:34;21.70;44.90
3504;DHT22;1766;53.490;10.174;2022-10-13T10:42:51;21.80;44.90
3504;DHT22;1766;53.490;10.174;2022-10-13T10:45:03;21.80;44.70
3504;DHT22;1766;53.490;10.174;2022-10-13T10:47:24;22.00;44.70
3504;DHT22;1766;53.490;10.174;2022-10-13T10:49:30;22.10;44.60
3504;DHT22;1766;53.490;10.174;2022-10-13T10:51:35;22.20;44.50
3504;DHT22;1766;53.490;10.174;2022-10-13T10:53:51;22.10;44.30
3504;DHT22;1766;53.490;10.174;2022-10-13T10:56:00;22.20;44.30
3504;DHT22;1766;53.490;10.174;2022-10-13T10:58:18;22.20;44.10
3504;DHT22;1766;53.490;10.174;2022-10-13T11:00:25;22.20;44.00
3504;DHT22;1766;53.490;10.174;2022-10-13T11:02:36;22.30;44.00
3504;DHT22;1766;53.490;10.174;2022-10-13T11:04:45;22.50;44.10
3504;DHT22;1766;53.490;10.174;2022-10-13T11:06:48;22.60;43.90
3504;DHT22;1766;53.490;10.174;2022-10-13T11:08:50;22.80;43.80
3504;DHT22;1766;53.490;10.174;2022-10-13T11:13:29;23.00;43.20
3504;DHT22;1766;53.490;10.174;2022-10-13T11:15:41;23.20;42.90
3504;DHT22;1766;53.490;10.174;2022-10-13T11:17:44;23.20;42.80
3504;DHT22;1766;53.490;10.174;2022-10-13T11:19:47;23.40;42.90
3504;DHT22;1766;53.490;10.174;2022-10-13T11:22:10;23.70;42.80
3504;DHT22;1766;53.490;10.174;2022-10-13T11:26:46;24.20;42.20
3504;DHT22;1766;53.490;10.174;2022-10-13T11:28:48;24.40;41.70
3504;DHT22;1766;53.490;10.174;2022-10-13T11:30:54;24.50;41.30
3504;DHT22;1766;53.490;10.174;2022-10-13T11:32:56;24.70;41.50
3504;DHT22;1766;53.490;10.174;2022-10-13T11:34:59;25.00;41.10
3504;DHT22;1766;53.490;10.174;2022-10-13T11:37:11;25.40;40.70
3504;DHT22;1766;53.490;10.174;2022-10-13T11:39:34;25.80;39.90
3504;DHT22;1766;53.490;10.174;2022-10-13T11:41:53;26.40;39.30
3504;DHT22;1766;53.490;10.174;2022-10-13T11:44:02;26.40;38.60
3504;DHT22;1766;53.490;10.174;2022-10-13T11:46:20;26.40;38.50
3504;DHT22;1766;53.490;10.174;2022-10-13T11:48:40;26.30;38.40
3504;DHT22;1766;53.490;10.174;2022-10-13T11:51:02;26.10;38.50
3504;DHT22;1766;53.490;10.174;2022-10-13T11:53:15;26.00;38.60
3504;DHT22;1766;53.490;10.174;2022-10-13T11:55:22;25.90;38.80
3504;DHT22;1766;53.490;10.174;2022-10-13T11:57:33;25.90;38.80
3504;DHT22;1766;53.490;10.174;2022-10-13T11:59:35;26.30;38.60
3504;DHT22;1766;53.490;10.174;2022-10-13T12:01:42;27.00;38.20
3504;DHT22;1766;53.490;10.174;2022-10-13T12:03:45;27.60;37.80
3504;DHT22;1766;53.490;10.174;2022-10-13T12:05:49;28.20;36.90
3504;DHT22;1766;53.490;10.174;2022-10-13T12:07:53;28.40;36.20
3504;DHT22;1766;53.490;10.174;2022-10-13T12:09:57;28.90;35.90
3504;DHT22;1766;53.490;10.174;2022-10-13T12:12:02;29.00;35.30
3504;DHT22;1766;53.490;10.174;2022-10-13T12:14:18;28.70;35.00
3504;DHT22;1766;53.490;10.174;2022-10-13T12:16:21;28.20;35.40
3504;DHT22;1766;53.490;10.174;2022-10-13T12:18:26;27.70;35.60
3504;DHT22;1766;53.490;10.174;2022-10-13T12:20:33;27.30;36.10
3504;DHT22;1766;53.490;10.174;2022-10-13T12:22:34;26.80;36.30
3504;DHT22;1766;53.490;10.174;2022-10-13T12:24:36;26.40;36.80
3504;DHT22;1766;53.490;10.174;2022-10-13T12:26:38;26.10;37.00
3504;DHT22;1766;53.490;10.174;2022-10-13T12:28:48;25.90;37.30
3504;DHT22;1766;53.490;10.174;2022-10-13T12:30:52;25.70;37.50
3504;DHT22;1766;53.490;10.174;2022-10-13T12:32:57;25.50;37.70
3504;DHT22;1766;53.490;10.174;2022-10-13T12:35:16;25.40;38.00
3504;DHT22;1766;53.490;10.174;2022-10-13T12:37:27;25.30;38.20
3504;DHT22;1766;53.490;10.174;2022-10-13T12:39:33;25.30;38.20
3504;DHT22;1766;53.490;10.174;2022-10-13T12:41:40;25.30;38.30
3504;DHT22;1766;53.490;10.174;2022-10-13T12:43:43;25.30;38.60
3504;DHT22;1766;53.490;10.174;2022-10-13T12:45:46;25.30;38.60
3504;DHT22;1766;53.490;10.174;2022-10-13T12:47:49;25.30;38.60
3504;DHT22;1766;53.490;10.174;2022-10-13T12:49:52;25.30;38.80
3504;DHT22;1766;53.490;10.174;2022-10-13T12:52:23;25.30;38.90
3504;DHT22;1766;53.490;10.174;2022-10-13T12:54:27;25.50;38.90
3504;DHT22;1766;53.490;10.174;2022-10-13T12:56:31;25.70;38.90
3504;DHT22;1766;53.490;10.174;2022-10-13T12:58:34;25.90;38.80
3504;DHT22;1766;53.490;10.174;2022-10-13T13:00:36;26.10;38.50
3504;DHT22;1766;53.490;10.174;2022-10-13T13:02:38;26.20;38.30
3504;DHT22;1766;53.490;10.174;2022-10-13T13:04:42;26.20;38.10
3504;DHT22;1766;53.490;10.174;2022-10-13T13:06:54;26.20;38.00
3504;DHT22;1766;53.490;10.174;2022-10-13T13:09:06;26.30;37.70
3504;DHT22;1766;53.490;10.174;2022-10-13T13:11:20;26.40;37.40
3504;DHT22;1766;53.490;10.174;2022-10-13T13:13:24;26.40;37.20
3504;DHT22;1766;53.490;10.174;2022-10-13T13:15:32;26.50;37.00
3504;DHT22;1766;53.490;10.174;2022-10-13T13:17:35;26.50;36.90
3504;DHT22;1766;53.490;10.174;2022-10-13T13:19:37;26.40;36.80
3504;DHT22;1766;53.490;10.174;2022-10-13T13:21:40;26.30;36.80
3504;DHT22;1766;53.490;10.174;2022-10-13T13:23:44;26.10;36.80
3504;DHT22;1766;53.490;10.174;2022-10-13T13:25:58;25.80;36.90
3504;DHT22;1766;53.490;10.174;2022-10-13T13:28:02;25.60;37.20
3504;DHT22;1766;53.490;10.174;2022-10-13T13:30:09;25.40;37.30
3504;DHT22;1766;53.490;10.174;2022-10-13T13:32:14;25.20;37.50